Time;durP1;ratioP1;P1;durP2;ratioP2;P2;SDS_P1;SDS_P2;PMS_P1;PMS_P2;Temp;Humidity;BMP_temperature;BMP_pressure;BME280_temperature;BME280_humidity;BME280_pressure;Samples;Min_cycle;Max_cycle;Signal;HPM_P1;HPM_P2
2022/12/03 00:02:08;;;;;;;33.50;17.02;;;;;;;;;;5011268;28;98505;-67
2022/12/03 00:04:35;;;;;;;31.42;17.38;;;;;;;;;;5013661;28;99454;-68
2022/12/03 00:07:01;;;;;;;35.83;17.42;;;;;;;;;;5011286;28;98543;-67
2022/12/03 00:09:27;;;;;;;29.65;17.48;;;;;;;;;;5011325;28;99318;-68
2022/12/03 00:11:54;;;;;;;30.77;16.98;;;;;;;;;;5006471;28;102733;-67
2022/12/03 00:14:20;;;;;;;35.22;17.20;;;;;;;;;;5009944;28;98578;-67
2022/12/03 00:16:46;;;;;;;37.78;18.17;;;;;;;;;;5009920;28;99738;-68
2022/12/03 00:19:12;;;;;;;34.95;18.13;;;;;;;;;;5010240;28;99770;-69
2022/12/03 00:21:39;;;;;;;38.40;18.80;;;;;;;;;;5011549;28;99167;-67
2022/12/03 00:24:05;;;;;;;38.97;19.50;;;;;;;;;;5013040;28;98625;-68
2022/12/03 00:26:31;;;;;;;36.92;18.08;;;;;;;;;;5010125;28;98535;-68
2022/12/03 00:28:58;;;;;;;33.05;17.48;;;;;;;;;;5011561;28;99225;-68
2022/12/03 00:31:24;;;;;;;37.78;18.40;;;;;;;;;;5010826;28;100502;-68
2022/12/03 00:33:51;;;;;;;39.58;18.30;;;;;;;;;;5009697;28;99140;-68
2022/12/03 00:36:17;;;;;;;34.25;18.33;;;;;;;;;;5011294;28;99697;-68
2022/12/03 00:38:43;;;;;;;42.78;19.63;;;;;;;;;;5008107;28;100442;-68
2022/12/03 00:41:10;;;;;;;37.83;18.58;;;;;;;;;;4996272;28;99202;-68
2022/12/03 00:43:37;;;;;;;39.28;19.15;;;;;;;;;;5009556;28;100416;-68
2022/12/03 00:46:03;;;;;;;37.03;19.23;;;;;;;;;;5014341;28;99080;-68
2022/12/03 00:48:30;;;;;;;34.53;18.45;;;;;;;;;;5008972;28;98662;-68
2022/12/03 00:50:56;;;;;;;39.25;19.02;;;;;;;;;;5010002;28;100676;-68
2022/12/03 00:53:22;;;;;;;35.00;18.13;;;;;;;;;;5010488;28;99232;-67
2022/12/03 00:55:49;;;;;;;40.63;18.95;;;;;;;;;;5009413;28;100918;-67
2022/12/03 00:58:16;;;;;;;39.50;19.23;;;;;;;;;;5010597;28;99557;-68
2022/12/03 01:00:42;;;;;;;34.78;17.83;;;;;;;;;;5009342;28;98737;-68
2022/12/03 01:03:09;;;;;;;35.78;19.13;;;;;;;;;;5010052;28;100430;-68
2022/12/03 01:05:35;;;;;;;39.97;19.17;;;;;;;;;;5009599;28;99582;-68
2022/12/03 01:08:01;;;;;;;40.30;18.52;;;;;;;;;;5012594;28;99005;-68
2022/12/03 01:10:28;;;;;;;36.35;19.33;;;;;;;;;;5022191;28;100316;-68
2022/12/03 01:12:54;;;;;;;32.15;18.20;;;;;;;;;;5020150;27;98568;-67
2022/12/03 01:15:20;;;;;;;39.45;19.60;;;;;;;;;;5013529;27;99293;-68
2022/12/03 01:17:47;;;;;;;38.65;19.33;;;;;;;;;;5007292;28;100049;-67
2022/12/03 01:20:13;;;;;;;38.50;18.65;;;;;;;;;;5009379;28;99340;-67
2022/12/03 01:22:39;;;;;;;38.42;19.80;;;;;;;;;;5010440;28;100292;-68
2022/12/03 01:25:06;;;;;;;36.20;18.70;;;;;;;;;;5014241;28;99496;-67
2022/12/03 01:27:32;;;;;;;38.72;18.80;;;;;;;;;;5013360;27;100188;-67
2022/12/03 01:29:58;;;;;;;32.50;17.17;;;;;;;;;;5020713;28;100108;-67
2022/12/03 01:32:25;;;;;;;39.42;18.60;;;;;;;;;;5019659;28;99458;-67
2022/12/03 01:34:52;;;;;;;36.42;19.73;;;;;;;;;;5024273;27;99154;-68
2022/12/03 01:37:20;;;;;;;40.42;18.90;;;;;;;;;;5014768;28;99898;-68
2022/12/03 01:39:47;;;;;;;37.85;18.88;;;;;;;;;;5017560;27;98650;-68
2022/12/03 01:42:21;;;;;;;39.58;18.45;;;;;;;;;;5009288;28;99244;-68
2022/12/03 01:44:47;;;;;;;39.30;18.73;;;;;;;;;;5011756;28;99609;-68
2022/12/03 01:47:15;;;;;;;40.13;18.55;;;;;;;;;;5005539;28;98696;-69
2022/12/03 01:49:43;;;;;;;36.53;17.92;;;;;;;;;;5007474;28;99972;-68
2022/12/03 01:52:13;;;;;;;40.22;18.38;;;;;;;;;;5011985;28;99780;-68
2022/12/03 01:54:41;;;;;;;42.42;19.83;;;;;;;;;;5008851;28;100290;-68
2022/12/03 01:57:19;;;;;;;38.60;18.52;;;;;;;;;;5009064;28;99401;-68
2022/12/03 01:59:45;;;;;;;39.17;19.13;;;;;;;;;;5010313;28;98188;-68
2022/12/03 02:02:13;;;;;;;35.85;19.25;;;;;;;;;;5008843;28;99007;-68
2022/12/03 02:04:40;;;;;;;38.25;18.85;;;;;;;;;;5010600;28;100552;-68
2022/12/03 02:07:21;;;;;;;39.92;19.63;;;;;;;;;;5008545;28;99311;-68
2022/12/03 02:09:47;;;;;;;38.08;18.70;;;;;;;;;;5008635;28;100217;-68
2022/12/03 02:12:14;;;;;;;45.75;19.83;;;;;;;;;;5009105;28;100595;-68
2022/12/03 02:14:41;;;;;;;37.55;19.90;;;;;;;;;;5013227;28;98672;-68
2022/12/03 02:17:07;;;;;;;42.90;19.58;;;;;;;;;;5009506;28;99648;-68
2022/12/03 02:19:34;;;;;;;38.22;18.98;;;;;;;;;;5009384;28;98552;-68
2022/12/03 02:22:14;;;;;;;34.13;18.27;;;;;;;;;;5008151;28;99264;-68
2022/12/03 02:24:54;;;;;;;40.33;19.10;;;;;;;;;;5017269;28;100213;-68
2022/12/03 02:27:21;;;;;;;53.92;20.02;;;;;;;;;;5008640;28;98624;-68
2022/12/03 02:29:47;;;;;;;42.03;19.80;;;;;;;;;;5009014;28;99390;-68
2022/12/03 02:32:13;;;;;;;40.53;19.50;;;;;;;;;;5006646;28;100483;-67
2022/12/03 02:34:41;;;;;;;42.25;19.40;;;;;;;;;;5015323;28;100726;-67
2022/12/03 02:37:10;;;;;;;39.28;19.55;;;;;;;;;;5018152;27;99735;-68
2022/12/03 02:39:38;;;;;;;42.60;19.88;;;;;;;;;;5016518;28;99238;-68
2022/12/03 02:44:51;;;;;;;42.08;20.02;;;;;;;;;;5011186;28;100033;-68
2022/12/03 02:47:18;;;;;;;39.03;19.23;;;;;;;;;;5012564;27;99024;-69
2022/12/03 02:49:44;;;;;;;35.13;18.10;;;;;;;;;;5011589;27;99309;-67
2022/12/03 02:52:10;;;;;;;41.95;20.55;;;;;;;;;;5008335;28;99786;-68
2022/12/03 02:54:37;;;;;;;40.38;20.15;;;;;;;;;;5007312;27;98806;-68
2022/12/03 02:57:03;;;;;;;38.70;18.95;;;;;;;;;;5010083;28;99708;-67
2022/12/03 02:59:29;;;;;;;39.25;19.15;;;;;;;;;;5008750;27;98480;-68
2022/12/03 03:01:56;;;;;;;41.13;19.48;;;;;;;;;;5007230;28;99932;-68
2022/12/03 03:04:23;;;;;;;40.45;19.98;;;;;;;;;;5008366;28;99507;-68
2022/12/03 03:06:50;;;;;;;36.53;18.65;;;;;;;;;;5007745;28;99096;-68
2022/12/03 03:09:17;;;;;;;38.85;20.25;;;;;;;;;;5008768;28;99197;-67
2022/12/03 03:11:43;;;;;;;38.88;18.95;;;;;;;;;;5008351;28;99447;-68
2022/12/03 03:14:09;;;;;;;38.60;18.67;;;;;;;;;;5009845;27;98130;-68
2022/12/03 03:16:35;;;;;;;39.10;19.50;;;;;;;;;;5009394;28;98856;-68
2022/12/03 03:19:02;;;;;;;42.15;19.73;;;;;;;;;;5011005;28;99691;-67
2022/12/03 03:21:28;;;;;;;41.78;19.83;;;;;;;;;;5007738;28;99554;-67
2022/12/03 03:23:54;;;;;;;39.03;19.83;;;;;;;;;;5008146;28;101333;-68
2022/12/03 03:26:21;;;;;;;44.20;20.88;;;;;;;;;;5007071;28;98641;-68
2022/12/03 03:28:48;;;;;;;41.33;21.00;;;;;;;;;;5017936;28;99587;-68
2022/12/03 03:31:16;;;;;;;39.47;19.60;;;;;;;;;;4998034;28;100966;-68
2022/12/03 03:33:44;;;;;;;38.85;19.42;;;;;;;;;;5006569;28;98584;-68
2022/12/03 03:36:11;;;;;;;42.10;20.02;;;;;;;;;;5002755;27;99487;-68
2022/12/03 03:38:37;;;;;;;41.85;19.48;;;;;;;;;;5025267;28;98895;-68
2022/12/03 03:41:04;;;;;;;43.60;19.83;;;;;;;;;;5007933;27;98540;-69
2022/12/03 03:43:33;;;;;;;42.95;20.35;;;;;;;;;;5004958;28;100037;-68
2022/12/03 03:46:00;;;;;;;45.47;21.75;;;;;;;;;;5017945;28;100888;-68
2022/12/03 03:48:26;;;;;;;40.50;19.92;;;;;;;;;;5015231;28;102929;-68
2022/12/03 03:50:53;;;;;;;45.92;22.08;;;;;;;;;;5013183;27;100597;-69
2022/12/03 03:53:19;;;;;;;44.33;21.15;;;;;;;;;;5005003;28;98702;-68
2022/12/03 03:55:46;;;;;;;43.58;21.83;;;;;;;;;;5016271;28;100019;-68
2022/12/03 03:58:12;;;;;;;45.88;21.35;;;;;;;;;;5014971;28;99981;-69
2022/12/03 04:00:38;;;;;;;45.42;23.23;;;;;;;;;;5015787;28;100031;-69
2022/12/03 04:03:05;;;;;;;44.00;21.02;;;;;;;;;;5019808;28;99233;-69
2022/12/03 04:05:31;;;;;;;42.90;20.70;;;;;;;;;;5021997;27;98545;-68
2022/12/03 04:07:58;;;;;;;40.38;21.27;;;;;;;;;;5004466;27;99966;-68
2022/12/03 04:13:09;;;;;;;48.05;22.25;;;;;;;;;;5007832;28;99053;-67
2022/12/03 04:15:35;;;;;;;42.33;21.33;;;;;;;;;;5013066;28;100393;-67
2022/12/03 04:20:46;;;;;;;44.53;20.35;;;;;;;;;;5008926;28;98563;-68
2022/12/03 04:23:13;;;;;;;43.88;21.48;;;;;;;;;;5012428;28;99269;-68
2022/12/03 04:28:47;;;;;;;43.55;20.02;;;;;;;;;;5018213;27;98955;-68
2022/12/03 04:36:42;;;;;;;47.65;22.20;;;;;;;;;;5026328;27;100024;-68
2022/12/03 04:39:08;;;;;;;45.25;21.60;;;;;;;;;;5028848;27;99483;-68
2022/12/03 04:41:35;;;;;;;45.00;21.05;;;;;;;;;;5023408;27;98433;-68
2022/12/03 04:46:46;;;;;;;42.22;20.38;;;;;;;;;;5012767;28;102400;-68
2022/12/03 04:49:12;;;;;;;44.28;20.50;;;;;;;;;;5018044;28;100296;-69
2022/12/03 04:51:38;;;;;;;40.78;19.92;;;;;;;;;;5009822;28;99494;-68
2022/12/03 04:54:19;;;;;;;40.45;20.58;;;;;;;;;;4993650;28;97879;-68
2022/12/03 04:56:46;;;;;;;46.50;20.67;;;;;;;;;;5010307;28;99629;-68
2022/12/03 04:59:13;;;;;;;46.22;20.30;;;;;;;;;;5017738;28;99890;-68
2022/12/03 05:01:42;;;;;;;42.22;19.70;;;;;;;;;;5003810;28;99835;-68
2022/12/03 05:04:08;;;;;;;37.30;19.77;;;;;;;;;;5016436;28;100706;-68
2022/12/03 05:06:34;;;;;;;40.55;20.33;;;;;;;;;;5020012;28;99585;-68
2022/12/03 05:09:01;;;;;;;36.78;19.05;;;;;;;;;;5027253;28;98684;-68
2022/12/03 05:11:27;;;;;;;38.63;20.35;;;;;;;;;;5028603;27;99501;-68
2022/12/03 05:13:53;;;;;;;41.95;21.52;;;;;;;;;;5018805;28;99010;-67
2022/12/03 05:16:20;;;;;;;40.95;21.33;;;;;;;;;;5018301;28;100565;-68
2022/12/03 05:18:46;;;;;;;47.63;22.58;;;;;;;;;;5004652;28;99829;-68
2022/12/03 05:21:12;;;;;;;43.38;20.48;;;;;;;;;;5022290;27;98858;-68
2022/12/03 05:23:39;;;;;;;50.25;21.83;;;;;;;;;;5008490;28;99507;-68
2022/12/03 05:26:05;;;;;;;43.97;21.38;;;;;;;;;;5014998;28;101221;-68
2022/12/03 05:28:31;;;;;;;40.55;21.10;;;;;;;;;;5014032;27;99080;-67
2022/12/03 05:30:58;;;;;;;46.90;22.27;;;;;;;;;;5017679;28;100320;-68
2022/12/03 05:33:24;;;;;;;44.67;21.73;;;;;;;;;;5010880;28;98619;-68
2022/12/03 05:35:50;;;;;;;45.13;22.00;;;;;;;;;;5011318;28;100328;-67
2022/12/03 05:38:17;;;;;;;42.05;20.02;;;;;;;;;;5005824;28;102015;-68
2022/12/03 05:40:43;;;;;;;42.78;21.65;;;;;;;;;;5007046;28;99044;-68
2022/12/03 05:43:09;;;;;;;39.97;20.95;;;;;;;;;;5000385;28;99158;-68
2022/12/03 05:45:37;;;;;;;44.08;22.15;;;;;;;;;;5023063;27;100378;-68
2022/12/03 05:48:05;;;;;;;42.20;21.17;;;;;;;;;;5010304;28;99125;-68
2022/12/03 05:50:32;;;;;;;49.78;22.80;;;;;;;;;;5008562;28;99633;-68
2022/12/03 05:52:59;;;;;;;40.70;20.48;;;;;;;;;;5011523;28;99820;-68
2022/12/03 05:55:26;;;;;;;49.40;21.30;;;;;;;;;;5009273;28;99494;-68
2022/12/03 05:57:52;;;;;;;46.25;21.55;;;;;;;;;;5029210;28;102302;-68
2022/12/03 06:00:20;;;;;;;44.72;20.40;;;;;;;;;;5022648;27;98519;-68
2022/12/03 06:02:46;;;;;;;45.80;21.15;;;;;;;;;;5000765;28;100327;-68
2022/12/03 06:05:14;;;;;;;43.60;21.27;;;;;;;;;;5008329;28;99503;-68
2022/12/03 06:07:40;;;;;;;43.60;21.30;;;;;;;;;;5009734;28;97795;-68
2022/12/03 06:10:08;;;;;;;37.05;20.88;;;;;;;;;;5005366;28;98742;-68
2022/12/03 06:12:34;;;;;;;38.15;19.58;;;;;;;;;;5009765;27;99545;-68
2022/12/03 06:15:01;;;;;;;39.38;20.98;;;;;;;;;;5024717;27;99369;-68
2022/12/03 06:17:27;;;;;;;38.20;20.08;;;;;;;;;;5004712;28;99728;-68
2022/12/03 06:19:53;;;;;;;36.28;19.63;;;;;;;;;;5009439;27;98593;-68
2022/12/03 06:22:20;;;;;;;38.35;19.17;;;;;;;;;;5009985;28;99242;-68
2022/12/03 06:24:46;;;;;;;38.65;19.63;;;;;;;;;;5006647;27;100585;-69
2022/12/03 06:27:12;;;;;;;35.85;19.05;;;;;;;;;;5010939;28;98615;-68
2022/12/03 06:29:39;;;;;;;40.20;19.80;;;;;;;;;;5025814;27;99214;-68
2022/12/03 06:32:05;;;;;;;38.92;19.80;;;;;;;;;;5007469;27;98850;-68
2022/12/03 06:34:31;;;;;;;39.13;20.88;;;;;;;;;;5010810;28;98603;-68
2022/12/03 06:36:58;;;;;;;35.22;19.88;;;;;;;;;;5014334;28;99890;-68
2022/12/03 06:39:24;;;;;;;34.58;18.83;;;;;;;;;;5010218;28;99637;-68
2022/12/03 06:41:50;;;;;;;34.67;19.77;;;;;;;;;;5007550;28;99756;-68
2022/12/03 06:44:16;;;;;;;36.53;19.38;;;;;;;;;;5016259;28;98537;-68
2022/12/03 06:46:43;;;;;;;34.35;18.52;;;;;;;;;;5009804;27;100701;-68
2022/12/03 06:49:09;;;;;;;36.05;20.35;;;;;;;;;;5000020;28;99244;-68
2022/12/03 06:51:36;;;;;;;42.15;20.20;;;;;;;;;;5005192;28;99514;-69
2022/12/03 06:54:03;;;;;;;35.90;18.85;;;;;;;;;;5012824;27;98822;-68
2022/12/03 06:56:29;;;;;;;36.80;19.25;;;;;;;;;;5016411;28;99230;-68
2022/12/03 06:59:03;;;;;;;39.15;18.50;;;;;;;;;;5029681;27;98854;-68
2022/12/03 07:01:29;;;;;;;37.90;19.95;;;;;;;;;;5010071;27;99822;-68
2022/12/03 07:03:55;;;;;;;43.67;21.65;;;;;;;;;;5005530;28;100140;-68
2022/12/03 07:06:22;;;;;;;34.20;18.90;;;;;;;;;;5008611;28;98795;-68
2022/12/03 07:08:48;;;;;;;41.00;20.27;;;;;;;;;;5009145;28;100621;-68
2022/12/03 07:11:38;;;;;;;41.45;21.17;;;;;;;;;;5007607;28;100439;-68
2022/12/03 07:14:05;;;;;;;41.08;20.20;;;;;;;;;;4989979;28;98468;-68
2022/12/03 07:16:33;;;;;;;37.45;19.77;;;;;;;;;;5006693;28;100212;-69
2022/12/03 07:18:59;;;;;;;40.10;20.58;;;;;;;;;;5010707;28;99651;-68
2022/12/03 07:21:25;;;;;;;42.47;20.50;;;;;;;;;;5008598;28;99430;-69
2022/12/03 07:23:52;;;;;;;41.25;22.10;;;;;;;;;;5006474;28;99533;-68
2022/12/03 07:26:18;;;;;;;39.13;20.80;;;;;;;;;;5005928;28;99602;-68
2022/12/03 07:28:45;;;;;;;48.90;22.48;;;;;;;;;;5023824;28;99536;-68
2022/12/03 07:31:11;;;;;;;42.75;21.08;;;;;;;;;;4996291;27;100853;-68
2022/12/03 07:33:38;;;;;;;41.72;20.55;;;;;;;;;;5009234;28;98650;-69
2022/12/03 07:36:04;;;;;;;42.88;20.02;;;;;;;;;;5010760;28;99233;-68
2022/12/03 07:38:31;;;;;;;43.22;21.10;;;;;;;;;;5004999;28;100822;-68
2022/12/03 07:40:57;;;;;;;39.35;20.92;;;;;;;;;;5015453;28;98986;-68
2022/12/03 07:43:23;;;;;;;43.60;21.70;;;;;;;;;;5011694;27;99494;-69
2022/12/03 07:45:49;;;;;;;46.80;21.73;;;;;;;;;;5010422;27;98277;-69
2022/12/03 07:48:16;;;;;;;44.97;22.35;;;;;;;;;;5007966;28;98494;-68
2022/12/03 07:50:42;;;;;;;41.78;20.13;;;;;;;;;;5003557;28;100078;-70
2022/12/03 07:53:08;;;;;;;44.13;21.63;;;;;;;;;;5012484;28;99905;-69
2022/12/03 07:55:34;;;;;;;50.45;21.50;;;;;;;;;;5008484;28;99853;-68
2022/12/03 07:58:01;;;;;;;46.40;21.83;;;;;;;;;;5006730;28;99463;-68
2022/12/03 08:00:27;;;;;;;48.53;23.00;;;;;;;;;;4990321;28;98656;-68
2022/12/03 08:02:53;;;;;;;48.10;22.48;;;;;;;;;;5017451;27;99343;-68
2022/12/03 08:05:20;;;;;;;49.78;22.17;;;;;;;;;;5016310;28;99791;-69
2022/12/03 08:07:46;;;;;;;52.33;23.48;;;;;;;;;;5017971;28;99289;-69
2022/12/03 08:10:12;;;;;;;47.38;22.60;;;;;;;;;;5016610;27;98769;-69
2022/12/03 08:12:39;;;;;;;48.75;23.23;;;;;;;;;;5007537;28;98596;-69
2022/12/03 08:15:15;;;;;;;50.95;23.13;;;;;;;;;;5010013;28;99433;-69
2022/12/03 08:17:42;;;;;;;48.33;23.10;;;;;;;;;;5012602;28;101304;-68
2022/12/03 08:20:11;;;;;;;52.38;23.42;;;;;;;;;;5019163;28;98675;-68
2022/12/03 08:22:39;;;;;;;47.25;21.60;;;;;;;;;;5011664;28;99305;-69
2022/12/03 08:25:11;;;;;;;54.83;23.98;;;;;;;;;;5013528;27;102183;-68
2022/12/03 08:27:38;;;;;;;53.03;24.48;;;;;;;;;;5021439;28;99258;-70
2022/12/03 08:30:04;;;;;;;47.40;22.77;;;;;;;;;;5006031;28;100408;-69
2022/12/03 08:32:30;;;;;;;54.03;23.40;;;;;;;;;;5003575;28;98543;-69
2022/12/03 08:34:57;;;;;;;50.22;24.48;;;;;;;;;;5002229;28;99857;-69
2022/12/03 08:37:23;;;;;;;50.75;23.77;;;;;;;;;;5010020;28;99481;-69
2022/12/03 08:39:53;;;;;;;51.22;23.25;;;;;;;;;;5014553;27;99025;-69
2022/12/03 08:42:41;;;;;;;49.85;23.63;;;;;;;;;;5008833;28;100848;-68
2022/12/03 08:45:26;;;;;;;53.67;23.58;;;;;;;;;;5001320;28;99569;-70
2022/12/03 08:48:01;;;;;;;52.47;24.38;;;;;;;;;;4997217;28;99285;-71
2022/12/03 08:50:32;;;;;;;51.10;24.10;;;;;;;;;;5014776;28;99797;-70
2022/12/03 08:53:10;;;;;;;46.80;22.15;;;;;;;;;;5014021;28;99370;-70
2022/12/03 08:55:37;;;;;;;49.28;22.58;;;;;;;;;;5020922;27;99763;-69
2022/12/03 08:58:23;;;;;;;49.45;22.92;;;;;;;;;;5030110;28;99765;-68
2022/12/03 09:00:55;;;;;;;50.40;22.83;;;;;;;;;;5032526;28;97755;-69
2022/12/03 09:03:22;;;;;;;51.17;22.65;;;;;;;;;;5017088;27;98938;-70
2022/12/03 09:05:48;;;;;;;53.50;22.98;;;;;;;;;;5014889;28;99550;-69
2022/12/03 09:08:14;;;;;;;46.72;22.27;;;;;;;;;;5012108;28;99431;-72
2022/12/03 09:10:40;;;;;;;58.80;23.15;;;;;;;;;;5007267;28;99460;-68
2022/12/03 09:13:07;;;;;;;50.13;21.90;;;;;;;;;;5028001;28;98617;-70
2022/12/03 09:15:33;;;;;;;52.17;22.90;;;;;;;;;;5030302;27;100340;-69
2022/12/03 09:17:59;;;;;;;54.85;22.83;;;;;;;;;;5031343;27;100664;-70
2022/12/03 09:20:26;;;;;;;53.13;24.15;;;;;;;;;;5023450;27;98555;-69
2022/12/03 09:22:52;;;;;;;52.13;23.77;;;;;;;;;;5024645;27;100348;-69
2022/12/03 09:25:18;;;;;;;52.60;24.13;;;;;;;;;;5029609;27;100074;-69
2022/12/03 09:27:44;;;;;;;54.90;23.23;;;;;;;;;;5031563;27;98678;-69
2022/12/03 09:30:11;;;;;;;45.88;22.08;;;;;;;;;;5034298;27;99589;-70
2022/12/03 09:32:37;;;;;;;52.00;22.55;;;;;;;;;;5020209;27;100812;-69
2022/12/03 09:35:04;;;;;;;51.80;22.38;;;;;;;;;;5028518;27;103045;-69
2022/12/03 09:37:30;;;;;;;57.65;23.75;;;;;;;;;;5021579;27;98571;-70
2022/12/03 09:39:56;;;;;;;52.30;23.27;;;;;;;;;;5019846;28;98538;-70
2022/12/03 09:42:23;;;;;;;57.88;23.67;;;;;;;;;;5027671;27;99262;-69
2022/12/03 09:44:50;;;;;;;54.33;23.42;;;;;;;;;;5025000;27;99554;-69
2022/12/03 09:47:17;;;;;;;52.58;21.73;;;;;;;;;;5009829;28;98532;-69
2022/12/03 09:49:43;;;;;;;51.83;22.73;;;;;;;;;;5010625;28;99314;-70
2022/12/03 09:52:13;;;;;;;51.47;22.70;;;;;;;;;;5028526;27;99581;-69
2022/12/03 09:54:39;;;;;;;47.53;20.77;;;;;;;;;;5030599;27;99337;-70
2022/12/03 09:57:17;;;;;;;46.72;20.95;;;;;;;;;;5021286;28;103514;-69
2022/12/03 09:59:44;;;;;;;47.75;20.42;;;;;;;;;;5019434;28;98614;-68
2022/12/03 10:02:18;;;;;;;48.10;21.05;;;;;;;;;;5031045;27;99721;-71
2022/12/03 10:04:44;;;;;;;50.95;20.23;;;;;;;;;;5028847;27;100490;-69
2022/12/03 10:07:11;;;;;;;56.85;21.50;;;;;;;;;;5021452;27;100073;-71
2022/12/03 10:09:37;;;;;;;54.28;20.88;;;;;;;;;;5030519;27;99263;-71
2022/12/03 10:12:03;;;;;;;57.20;20.33;;;;;;;;;;5022614;27;102355;-69
2022/12/03 10:14:30;;;;;;;59.50;22.80;;;;;;;;;;5012452;28;97831;-69
2022/12/03 10:16:57;;;;;;;56.70;22.05;;;;;;;;;;4992439;28;99513;-72
2022/12/03 10:19:26;;;;;;;61.03;22.20;;;;;;;;;;4990155;28;98617;-70
2022/12/03 10:21:52;;;;;;;59.88;23.38;;;;;;;;;;4993259;28;99293;-70
2022/12/03 10:24:22;;;;;;;55.72;21.90;;;;;;;;;;5019668;27;100526;-69
2022/12/03 10:26:49;;;;;;;71.57;24.67;;;;;;;;;;5027750;27;98645;-69
2022/12/03 10:29:20;;;;;;;66.80;23.42;;;;;;;;;;5013927;27;99294;-69
2022/12/03 10:32:06;;;;;;;68.43;24.70;;;;;;;;;;5009890;28;99516;-69
2022/12/03 10:34:34;;;;;;;66.55;23.67;;;;;;;;;;5016012;28;98713;-69
2022/12/03 10:37:20;;;;;;;59.92;23.50;;;;;;;;;;5032243;27;99571;-69
2022/12/03 10:39:52;;;;;;;59.08;22.13;;;;;;;;;;5010902;27;97782;-68
2022/12/03 10:42:22;;;;;;;70.55;24.92;;;;;;;;;;5011691;28;98587;-69
2022/12/03 10:44:52;;;;;;;67.90;24.92;;;;;;;;;;5023643;28;99610;-69
2022/12/03 10:47:21;;;;;;;69.47;23.88;;;;;;;;;;5008663;28;99517;-70
2022/12/03 10:49:59;;;;;;;71.32;25.15;;;;;;;;;;5006960;28;100579;-68
2022/12/03 10:52:26;;;;;;;68.60;23.60;;;;;;;;;;4998504;28;99459;-69
2022/12/03 10:54:52;;;;;;;63.25;24.38;;;;;;;;;;5007891;28;98891;-69
2022/12/03 10:57:19;;;;;;;55.17;23.70;;;;;;;;;;5011383;28;99555;-69
2022/12/03 10:59:45;;;;;;;87.03;26.65;;;;;;;;;;5006669;28;98996;-69
2022/12/03 11:02:19;;;;;;;58.72;24.80;;;;;;;;;;5027242;28;99581;-68
2022/12/03 11:04:46;;;;;;;61.47;23.92;;;;;;;;;;5019249;27;98893;-68
2022/12/03 11:07:19;;;;;;;64.72;24.88;;;;;;;;;;5008967;28;98550;-70
2022/12/03 11:09:47;;;;;;;61.28;24.67;;;;;;;;;;5007699;28;100287;-68
2022/12/03 11:12:17;;;;;;;70.20;24.50;;;;;;;;;;5006384;28;100294;-69
2022/12/03 11:14:50;;;;;;;61.78;23.48;;;;;;;;;;5027230;28;98619;-68
2022/12/03 11:17:36;;;;;;;55.50;23.70;;;;;;;;;;5017995;27;99423;-69
2022/12/03 11:20:02;;;;;;;59.83;23.23;;;;;;;;;;5032558;27;99690;-69
2022/12/03 11:22:58;;;;;;;56.10;24.02;;;;;;;;;;5029386;27;99191;-69
2022/12/03 11:25:27;;;;;;;57.88;22.65;;;;;;;;;;5020064;28;99643;-69
2022/12/03 11:28:11;;;;;;;63.63;23.67;;;;;;;;;;5022717;27;99188;-69
2022/12/03 11:30:44;;;;;;;50.15;22.05;;;;;;;;;;5017723;27;99654;-69
2022/12/03 11:33:27;;;;;;;49.13;21.23;;;;;;;;;;5004612;28;99414;-70
2022/12/03 11:36:19;;;;;;;48.15;19.80;;;;;;;;;;5009188;28;98485;-69
2022/12/03 11:39:06;;;;;;;50.70;20.15;;;;;;;;;;5016498;28;100428;-70
2022/12/03 11:41:33;;;;;;;46.65;19.88;;;;;;;;;;5019639;27;99508;-68
2022/12/03 11:44:04;;;;;;;46.20;19.98;;;;;;;;;;5029558;27;100353;-70
2022/12/03 11:46:36;;;;;;;45.20;18.60;;;;;;;;;;5014299;27;99557;-70
2022/12/03 11:49:21;;;;;;;47.80;17.83;;;;;;;;;;5008089;28;98571;-70
2022/12/03 11:51:48;;;;;;;46.10;18.42;;;;;;;;;;5019357;28;99685;-70
2022/12/03 11:54:15;;;;;;;43.78;18.17;;;;;;;;;;5025418;27;99485;-70
2022/12/03 11:56:46;;;;;;;38.72;17.55;;;;;;;;;;5013023;27;97756;-70
2022/12/03 11:59:12;;;;;;;39.22;16.80;;;;;;;;;;5008286;28;98890;-70
2022/12/03 12:01:39;;;;;;;39.80;18.00;;;;;;;;;;5010566;28;101042;-70
2022/12/03 12:04:06;;;;;;;36.75;16.80;;;;;;;;;;5028549;27;99300;-69
2022/12/03 12:06:43;;;;;;;38.00;16.40;;;;;;;;;;5016275;27;100038;-70
2022/12/03 12:09:36;;;;;;;39.45;17.27;;;;;;;;;;5006973;28;98562;-67
2022/12/03 12:12:21;;;;;;;36.00;15.38;;;;;;;;;;4999724;28;100668;-68
2022/12/03 12:14:48;;;;;;;39.53;16.00;;;;;;;;;;4998239;28;100961;-69
2022/12/03 12:17:27;;;;;;;35.58;15.98;;;;;;;;;;4997782;28;98778;-69
2022/12/03 12:20:12;;;;;;;35.80;15.95;;;;;;;;;;5012543;28;100435;-70
2022/12/03 12:22:38;;;;;;;34.63;15.68;;;;;;;;;;5026750;27;98901;-69
2022/12/03 12:25:25;;;;;;;31.40;15.60;;;;;;;;;;5025432;27;98503;-68
2022/12/03 12:27:52;;;;;;;37.38;15.77;;;;;;;;;;5000277;28;99577;-70
2022/12/03 12:30:20;;;;;;;30.98;14.43;;;;;;;;;;5008002;28;101772;-70
2022/12/03 12:32:47;;;;;;;35.60;14.82;;;;;;;;;;5008290;28;100055;-70
2022/12/03 12:35:16;;;;;;;30.92;14.23;;;;;;;;;;5006005;28;99816;-70
2022/12/03 12:37:49;;;;;;;35.72;15.63;;;;;;;;;;5015939;27;98586;-70
2022/12/03 12:40:28;;;;;;;36.78;16.45;;;;;;;;;;5028743;27;99558;-70
2022/12/03 12:42:58;;;;;;;45.10;16.35;;;;;;;;;;5027874;27;99419;-69
2022/12/03 12:45:28;;;;;;;35.65;16.48;;;;;;;;;;5018940;27;98565;-67
2022/12/03 12:48:02;;;;;;;45.72;18.55;;;;;;;;;;5023381;28;99756;-69
2022/12/03 12:50:29;;;;;;;42.35;17.52;;;;;;;;;;5014652;27;100389;-69
2022/12/03 12:53:07;;;;;;;38.00;17.20;;;;;;;;;;5013864;28;98473;-69
2022/12/03 12:55:33;;;;;;;39.35;16.42;;;;;;;;;;5010737;28;100289;-70
2022/12/03 12:58:01;;;;;;;38.10;16.80;;;;;;;;;;5024997;28;98980;-69
2022/12/03 13:00:27;;;;;;;38.03;15.98;;;;;;;;;;5031834;27;99322;-70
2022/12/03 13:02:57;;;;;;;39.88;16.38;;;;;;;;;;5015460;27;99539;-69
2022/12/03 13:05:26;;;;;;;38.20;16.30;;;;;;;;;;5009583;28;99957;-69
2022/12/03 13:07:53;;;;;;;38.25;16.42;;;;;;;;;;5011225;28;99187;-70
2022/12/03 13:10:23;;;;;;;36.78;16.45;;;;;;;;;;5015035;28;99462;-70
2022/12/03 13:12:50;;;;;;;41.30;17.85;;;;;;;;;;5014860;27;98327;-69
2022/12/03 13:15:35;;;;;;;36.70;15.48;;;;;;;;;;5009853;28;99456;-69
2022/12/03 13:18:09;;;;;;;37.72;15.93;;;;;;;;;;5011193;28;98629;-70
2022/12/03 13:20:36;;;;;;;37.00;16.27;;;;;;;;;;5016612;28;100611;-69
2022/12/03 13:23:04;;;;;;;43.10;17.75;;;;;;;;;;5029478;27;99733;-68
2022/12/03 13:25:35;;;;;;;45.72;18.13;;;;;;;;;;5022685;27;100029;-69
2022/12/03 13:28:22;;;;;;;41.25;16.52;;;;;;;;;;5031425;28;99133;-69
2022/12/03 13:30:48;;;;;;;44.40;17.50;;;;;;;;;;5028851;27;99505;-69
2022/12/03 13:33:24;;;;;;;45.10;17.77;;;;;;;;;;5020217;27;98609;-69
2022/12/03 13:35:51;;;;;;;39.45;17.25;;;;;;;;;;5029437;27;100329;-69
2022/12/03 13:38:19;;;;;;;45.35;17.63;;;;;;;;;;5026334;27;98125;-63
2022/12/03 13:40:45;;;;;;;48.63;17.15;;;;;;;;;;5029486;27;98625;-64
2022/12/03 13:43:14;;;;;;;44.00;17.80;;;;;;;;;;5010864;28;99982;-63
2022/12/03 13:45:42;;;;;;;40.85;16.65;;;;;;;;;;5009788;28;99406;-63
2022/12/03 13:48:18;;;;;;;41.13;17.15;;;;;;;;;;5009667;28;100081;-63
2022/12/03 13:50:45;;;;;;;42.58;17.30;;;;;;;;;;5003548;28;99553;-63
2022/12/03 13:53:30;;;;;;;43.88;18.02;;;;;;;;;;5031031;27;98611;-63
2022/12/03 13:56:15;;;;;;;51.08;19.73;;;;;;;;;;5029524;28;98933;-63
2022/12/03 13:58:41;;;;;;;64.30;22.67;;;;;;;;;;5016244;27;99678;-63
2022/12/03 14:01:07;;;;;;;62.58;23.02;;;;;;;;;;5024453;27;99596;-63
2022/12/03 14:03:34;;;;;;;73.72;25.13;;;;;;;;;;5015646;27;99114;-63
2022/12/03 14:06:00;;;;;;;74.55;26.75;;;;;;;;;;5010793;28;98675;-63
2022/12/03 14:08:26;;;;;;;68.18;24.80;;;;;;;;;;5010201;28;99330;-64
2022/12/03 14:10:52;;;;;;;67.50;25.75;;;;;;;;;;5018378;28;100541;-63
2022/12/03 14:13:25;;;;;;;72.15;26.30;;;;;;;;;;5030558;27;98561;-64
2022/12/03 14:15:52;;;;;;;68.50;26.38;;;;;;;;;;5003815;27;99884;-63
2022/12/03 14:18:18;;;;;;;70.20;27.00;;;;;;;;;;5021451;28;99687;-64
2022/12/03 14:20:44;;;;;;;80.50;27.40;;;;;;;;;;5022612;27;98797;-64
2022/12/03 14:23:11;;;;;;;63.38;24.55;;;;;;;;;;5013049;28;99241;-63
2022/12/03 14:25:37;;;;;;;73.45;26.98;;;;;;;;;;5010205;28;98586;-64
2022/12/03 14:28:07;;;;;;;63.45;24.17;;;;;;;;;;5006624;28;99199;-63
2022/12/03 14:30:34;;;;;;;70.70;25.00;;;;;;;;;;5005780;28;101090;-63
2022/12/03 14:33:00;;;;;;;71.07;25.33;;;;;;;;;;5010012;28;98545;-63
2022/12/03 14:35:26;;;;;;;67.72;24.65;;;;;;;;;;5009754;28;99616;-63
2022/12/03 14:37:53;;;;;;;68.72;24.42;;;;;;;;;;5009810;28;99628;-64
2022/12/03 14:40:19;;;;;;;76.22;25.15;;;;;;;;;;5018013;28;99224;-63
2022/12/03 14:42:47;;;;;;;58.88;22.95;;;;;;;;;;5033059;27;100504;-63